sensor_id;sensor_type;location;lat;lon;timestamp;P1;durP1;ratioP1;P2;durP2;ratioP2
3783;SDS011;1907;49.238;9.262;2022-11-04T00:01:37;0.70;;;0.70;;
3783;SDS011;1907;49.238;9.262;2022-11-04T00:04:04;3.07;;;1.30;;
3783;SDS011;1907;49.238;9.262;2022-11-04T00:06:30;1.17;;;1.10;;
3783;SDS011;1907;49.238;9.262;2022-11-04T00:08:56;0.73;;;0.73;;
3783;SDS011;1907;49.238;9.262;2022-11-04T00:11:23;1.17;;;1.03;;
3783;SDS011;1907;49.238;9.262;2022-11-04T00:14:08;0.80;;;0.80;;
3783;SDS011;1907;49.238;9.262;2022-11-04T00:16:34;0.70;;;0.70;;
3783;SDS011;1907;49.238;9.262;2022-11-04T00:19:18;0.60;;;0.60;;
3783;SDS011;1907;49.238;9.262;2022-11-04T00:21:44;1.47;;;1.00;;
3783;SDS011;1907;49.238;9.262;2022-11-04T00:24:28;0.90;;;0.90;;
3783;SDS011;1907;49.238;9.262;2022-11-04T00:27:13;0.93;;;0.93;;
3783;SDS011;1907;49.238;9.262;2022-11-04T00:29:59;1.17;;;0.90;;
3783;SDS011;1907;49.238;9.262;2022-11-04T00:32:25;0.90;;;0.90;;
3783;SDS011;1907;49.238;9.262;2022-11-04T00:35:10;0.93;;;0.93;;
3783;SDS011;1907;49.238;9.262;2022-11-04T00:37:40;5.20;;;0.97;;
3783;SDS011;1907;49.238;9.262;2022-11-04T00:40:08;0.60;;;0.60;;
3783;SDS011;1907;49.238;9.262;2022-11-04T00:42:35;1.10;;;1.10;;
3783;SDS011;1907;49.238;9.262;2022-11-04T00:45:01;0.87;;;0.87;;
3783;SDS011;1907;49.238;9.262;2022-11-04T00:47:27;0.87;;;0.70;;
3783;SDS011;1907;49.238;9.262;2022-11-04T00:49:53;0.70;;;0.70;;
3783;SDS011;1907;49.238;9.262;2022-11-04T00:52:18;0.90;;;0.90;;
3783;SDS011;1907;49.238;9.262;2022-11-04T00:54:44;2.13;;;0.80;;
3783;SDS011;1907;49.238;9.262;2022-11-04T00:57:10;1.27;;;1.00;;
3783;SDS011;1907;49.238;9.262;2022-11-04T00:59:37;0.80;;;0.80;;
3783;SDS011;1907;49.238;9.262;2022-11-04T01:02:04;1.43;;;0.63;;
3783;SDS011;1907;49.238;9.262;2022-11-04T01:04:30;0.90;;;0.90;;
3783;SDS011;1907;49.238;9.262;2022-11-04T01:06:56;6.10;;;0.87;;
3783;SDS011;1907;49.238;9.262;2022-11-04T01:09:21;2.97;;;0.60;;
3783;SDS011;1907;49.238;9.262;2022-11-04T01:11:47;1.20;;;1.10;;
3783;SDS011;1907;49.238;9.262;2022-11-04T01:14:13;0.87;;;0.87;;
3783;SDS011;1907;49.238;9.262;2022-11-04T01:16:39;1.33;;;0.80;;
3783;SDS011;1907;49.238;9.262;2022-11-04T01:19:04;1.10;;;1.10;;
3783;SDS011;1907;49.238;9.262;2022-11-04T01:21:30;1.53;;;1.33;;
3783;SDS011;1907;49.238;9.262;2022-11-04T01:23:56;0.73;;;0.73;;
3783;SDS011;1907;49.238;9.262;2022-11-04T01:26:24;1.03;;;1.03;;
3783;SDS011;1907;49.238;9.262;2022-11-04T01:28:51;1.10;;;0.97;;
3783;SDS011;1907;49.238;9.262;2022-11-04T01:31:19;0.70;;;0.70;;
3783;SDS011;1907;49.238;9.262;2022-11-04T01:33:50;1.13;;;1.00;;
3783;SDS011;1907;49.238;9.262;2022-11-04T01:36:17;0.70;;;0.70;;
3783;SDS011;1907;49.238;9.262;2022-11-04T01:38:43;1.07;;;1.07;;
3783;SDS011;1907;49.238;9.262;2022-11-04T01:41:10;1.10;;;1.10;;
3783;SDS011;1907;49.238;9.262;2022-11-04T01:43:49;1.17;;;1.10;;
3783;SDS011;1907;49.238;9.262;2022-11-04T01:46:39;0.80;;;0.70;;
3783;SDS011;1907;49.238;9.262;2022-11-04T01:52:11;1.13;;;1.13;;
3783;SDS011;1907;49.238;9.262;2022-11-04T01:54:40;2.10;;;1.03;;
3783;SDS011;1907;49.238;9.262;2022-11-04T01:57:10;1.07;;;1.00;;
3783;SDS011;1907;49.238;9.262;2022-11-04T01:59:41;0.70;;;0.70;;
3783;SDS011;1907;49.238;9.262;2022-11-04T02:02:07;1.70;;;1.00;;
3783;SDS011;1907;49.238;9.262;2022-11-04T02:04:33;0.70;;;0.70;;
3783;SDS011;1907;49.238;9.262;2022-11-04T02:07:01;1.00;;;1.00;;
3783;SDS011;1907;49.238;9.262;2022-11-04T02:09:29;0.70;;;0.70;;
3783;SDS011;1907;49.238;9.262;2022-11-04T02:11:56;1.37;;;0.70;;
3783;SDS011;1907;49.238;9.262;2022-11-04T02:14:41;1.00;;;1.00;;
3783;SDS011;1907;49.238;9.262;2022-11-04T02:25:30;1.03;;;1.03;;
3783;SDS011;1907;49.238;9.262;2022-11-04T02:33:45;2.00;;;0.80;;
3783;SDS011;1907;49.238;9.262;2022-11-04T02:36:21;0.80;;;0.80;;
3783;SDS011;1907;49.238;9.262;2022-11-04T02:39:04;1.50;;;0.60;;
3783;SDS011;1907;49.238;9.262;2022-11-04T02:49:43;1.27;;;0.70;;
3783;SDS011;1907;49.238;9.262;2022-11-04T02:52:18;1.90;;;0.60;;
3783;SDS011;1907;49.238;9.262;2022-11-04T02:54:53;0.60;;;0.60;;
3783;SDS011;1907;49.238;9.262;2022-11-04T02:57:28;0.70;;;0.63;;
3783;SDS011;1907;49.238;9.262;2022-11-04T03:02:43;1.13;;;0.60;;
3783;SDS011;1907;49.238;9.262;2022-11-04T03:05:14;1.17;;;0.80;;
3783;SDS011;1907;49.238;9.262;2022-11-04T03:07:43;0.60;;;0.60;;
3783;SDS011;1907;49.238;9.262;2022-11-04T03:10:22;1.07;;;0.90;;
3783;SDS011;1907;49.238;9.262;2022-11-04T03:12:53;1.00;;;0.90;;
3783;SDS011;1907;49.238;9.262;2022-11-04T03:15:41;0.67;;;0.60;;
3783;SDS011;1907;49.238;9.262;2022-11-04T03:21:05;1.33;;;1.23;;
3783;SDS011;1907;49.238;9.262;2022-11-04T03:23:33;2.30;;;1.80;;
3783;SDS011;1907;49.238;9.262;2022-11-04T03:26:18;0.97;;;0.90;;
3783;SDS011;1907;49.238;9.262;2022-11-04T03:31:44;1.00;;;1.00;;
3783;SDS011;1907;49.238;9.262;2022-11-04T03:34:16;1.47;;;0.93;;
3783;SDS011;1907;49.238;9.262;2022-11-04T03:36:42;2.77;;;0.90;;
3783;SDS011;1907;49.238;9.262;2022-11-04T03:39:07;2.40;;;0.80;;
3783;SDS011;1907;49.238;9.262;2022-11-04T03:41:34;1.17;;;0.80;;
3783;SDS011;1907;49.238;9.262;2022-11-04T03:44:07;1.73;;;1.63;;
3783;SDS011;1907;49.238;9.262;2022-11-04T03:46:33;1.30;;;1.20;;
3783;SDS011;1907;49.238;9.262;2022-11-04T03:48:59;0.90;;;0.90;;
3783;SDS011;1907;49.238;9.262;2022-11-04T03:51:26;0.70;;;0.70;;
3783;SDS011;1907;49.238;9.262;2022-11-04T03:53:51;0.80;;;0.80;;
3783;SDS011;1907;49.238;9.262;2022-11-04T03:56:34;11.40;;;0.90;;
3783;SDS011;1907;49.238;9.262;2022-11-04T03:59:23;0.90;;;0.90;;
3783;SDS011;1907;49.238;9.262;2022-11-04T04:01:57;1.00;;;0.90;;
3783;SDS011;1907;49.238;9.262;2022-11-04T04:04:36;1.67;;;0.60;;
3783;SDS011;1907;49.238;9.262;2022-11-04T04:07:07;1.00;;;0.97;;
3783;SDS011;1907;49.238;9.262;2022-11-04T04:12:26;1.00;;;1.00;;
3783;SDS011;1907;49.238;9.262;2022-11-04T04:17:45;0.80;;;0.80;;
3783;SDS011;1907;49.238;9.262;2022-11-04T04:20:20;3.50;;;0.60;;
3783;SDS011;1907;49.238;9.262;2022-11-04T04:22:49;2.60;;;1.03;;
3783;SDS011;1907;49.238;9.262;2022-11-04T04:25:21;4.20;;;1.03;;
3783;SDS011;1907;49.238;9.262;2022-11-04T04:28:08;0.60;;;0.60;;
3783;SDS011;1907;49.238;9.262;2022-11-04T04:30:37;0.80;;;0.80;;
3783;SDS011;1907;49.238;9.262;2022-11-04T04:33:05;1.27;;;1.00;;
3783;SDS011;1907;49.238;9.262;2022-11-04T04:35:37;4.57;;;0.70;;
3783;SDS011;1907;49.238;9.262;2022-11-04T04:38:12;1.93;;;0.70;;
3783;SDS011;1907;49.238;9.262;2022-11-04T04:47:13;1.57;;;0.90;;
3783;SDS011;1907;49.238;9.262;2022-11-04T04:49:53;1.40;;;1.00;;
3783;SDS011;1907;49.238;9.262;2022-11-04T04:52:21;1.60;;;0.80;;
3783;SDS011;1907;49.238;9.262;2022-11-04T04:54:49;0.60;;;0.57;;
3783;SDS011;1907;49.238;9.262;2022-11-04T04:57:15;4.63;;;0.70;;
3783;SDS011;1907;49.238;9.262;2022-11-04T04:59:40;0.83;;;0.83;;
3783;SDS011;1907;49.238;9.262;2022-11-04T05:02:06;0.90;;;0.80;;
3783;SDS011;1907;49.238;9.262;2022-11-04T05:04:31;3.63;;;1.77;;
3783;SDS011;1907;49.238;9.262;2022-11-04T05:06:57;1.20;;;0.93;;
3783;SDS011;1907;49.238;9.262;2022-11-04T05:09:22;2.53;;;0.93;;
3783;SDS011;1907;49.238;9.262;2022-11-04T05:11:48;8.53;;;0.73;;
3783;SDS011;1907;49.238;9.262;2022-11-04T05:14:14;0.60;;;0.60;;
3783;SDS011;1907;49.238;9.262;2022-11-04T05:16:39;1.90;;;0.70;;
3783;SDS011;1907;49.238;9.262;2022-11-04T05:19:05;1.60;;;1.07;;
3783;SDS011;1907;49.238;9.262;2022-11-04T05:21:30;0.80;;;0.80;;
3783;SDS011;1907;49.238;9.262;2022-11-04T05:23:56;2.30;;;0.93;;
3783;SDS011;1907;49.238;9.262;2022-11-04T05:26:22;0.67;;;0.67;;
3783;SDS011;1907;49.238;9.262;2022-11-04T05:28:47;0.80;;;0.80;;
3783;SDS011;1907;49.238;9.262;2022-11-04T05:31:13;0.90;;;0.83;;
3783;SDS011;1907;49.238;9.262;2022-11-04T05:33:39;1.33;;;1.23;;
3783;SDS011;1907;49.238;9.262;2022-11-04T05:36:08;0.90;;;0.90;;
3783;SDS011;1907;49.238;9.262;2022-11-04T05:38:35;0.90;;;0.80;;
3783;SDS011;1907;49.238;9.262;2022-11-04T05:41:01;1.30;;;1.23;;
3783;SDS011;1907;49.238;9.262;2022-11-04T05:43:27;2.00;;;1.07;;
3783;SDS011;1907;49.238;9.262;2022-11-04T05:45:53;10.13;;;1.13;;
3783;SDS011;1907;49.238;9.262;2022-11-04T05:48:18;3.87;;;1.07;;
3783;SDS011;1907;49.238;9.262;2022-11-04T05:50:44;1.83;;;1.23;;
3783;SDS011;1907;49.238;9.262;2022-11-04T05:53:10;2.10;;;1.00;;
3783;SDS011;1907;49.238;9.262;2022-11-04T05:55:36;1.33;;;1.23;;
3783;SDS011;1907;49.238;9.262;2022-11-04T05:58:01;1.17;;;0.80;;
3783;SDS011;1907;49.238;9.262;2022-11-04T06:00:27;0.90;;;0.83;;
3783;SDS011;1907;49.238;9.262;2022-11-04T06:02:53;1.03;;;1.00;;
3783;SDS011;1907;49.238;9.262;2022-11-04T06:05:22;0.90;;;0.90;;
3783;SDS011;1907;49.238;9.262;2022-11-04T06:07:48;2.43;;;2.33;;
3783;SDS011;1907;49.238;9.262;2022-11-04T06:10:14;1.23;;;0.70;;
3783;SDS011;1907;49.238;9.262;2022-11-04T06:12:40;1.57;;;1.47;;
3783;SDS011;1907;49.238;9.262;2022-11-04T06:15:05;1.00;;;1.00;;
3783;SDS011;1907;49.238;9.262;2022-11-04T06:17:31;5.73;;;1.30;;
3783;SDS011;1907;49.238;9.262;2022-11-04T06:19:57;1.43;;;1.27;;
3783;SDS011;1907;49.238;9.262;2022-11-04T06:22:22;1.60;;;1.50;;
3783;SDS011;1907;49.238;9.262;2022-11-04T06:24:48;6.07;;;1.27;;
3783;SDS011;1907;49.238;9.262;2022-11-04T06:27:14;1.40;;;1.30;;
3783;SDS011;1907;49.238;9.262;2022-11-04T06:29:39;4.83;;;1.27;;
3783;SDS011;1907;49.238;9.262;2022-11-04T06:32:06;1.37;;;1.27;;
3783;SDS011;1907;49.238;9.262;2022-11-04T06:34:39;2.40;;;1.30;;
3783;SDS011;1907;49.238;9.262;2022-11-04T06:37:04;2.07;;;0.97;;
3783;SDS011;1907;49.238;9.262;2022-11-04T06:39:31;1.27;;;1.03;;
3783;SDS011;1907;49.238;9.262;2022-11-04T06:41:56;1.07;;;0.97;;
3783;SDS011;1907;49.238;9.262;2022-11-04T06:44:22;3.37;;;1.27;;
3783;SDS011;1907;49.238;9.262;2022-11-04T06:46:48;4.40;;;1.03;;
3783;SDS011;1907;49.238;9.262;2022-11-04T06:49:14;1.20;;;1.00;;
3783;SDS011;1907;49.238;9.262;2022-11-04T06:51:42;6.50;;;1.20;;
3783;SDS011;1907;49.238;9.262;2022-11-04T06:54:08;5.67;;;1.30;;
3783;SDS011;1907;49.238;9.262;2022-11-04T06:56:34;6.70;;;1.43;;
3783;SDS011;1907;49.238;9.262;2022-11-04T06:59:00;2.23;;;2.03;;
3783;SDS011;1907;49.238;9.262;2022-11-04T07:01:27;0.90;;;0.90;;
3783;SDS011;1907;49.238;9.262;2022-11-04T07:03:56;2.30;;;1.20;;
3783;SDS011;1907;49.238;9.262;2022-11-04T07:06:23;1.43;;;1.33;;
3783;SDS011;1907;49.238;9.262;2022-11-04T07:08:49;2.97;;;1.00;;
3783;SDS011;1907;49.238;9.262;2022-11-04T07:11:17;1.40;;;1.30;;
3783;SDS011;1907;49.238;9.262;2022-11-04T07:13:45;1.97;;;1.87;;
3783;SDS011;1907;49.238;9.262;2022-11-04T07:16:11;1.17;;;0.97;;
3783;SDS011;1907;49.238;9.262;2022-11-04T07:18:37;5.60;;;1.20;;
3783;SDS011;1907;49.238;9.262;2022-11-04T07:21:03;1.80;;;1.70;;
3783;SDS011;1907;49.238;9.262;2022-11-04T07:23:29;1.63;;;1.10;;
3783;SDS011;1907;49.238;9.262;2022-11-04T07:25:58;1.90;;;1.63;;
3783;SDS011;1907;49.238;9.262;2022-11-04T07:28:25;1.73;;;1.63;;
3783;SDS011;1907;49.238;9.262;2022-11-04T07:30:50;3.60;;;1.90;;
3783;SDS011;1907;49.238;9.262;2022-11-04T07:33:18;4.73;;;1.67;;
3783;SDS011;1907;49.238;9.262;2022-11-04T07:35:44;1.60;;;1.50;;
3783;SDS011;1907;49.238;9.262;2022-11-04T07:38:09;1.53;;;1.43;;
3783;SDS011;1907;49.238;9.262;2022-11-04T07:40:35;3.40;;;2.00;;
3783;SDS011;1907;49.238;9.262;2022-11-04T07:43:01;2.70;;;2.60;;
3783;SDS011;1907;49.238;9.262;2022-11-04T07:45:27;2.67;;;1.63;;
3783;SDS011;1907;49.238;9.262;2022-11-04T07:47:52;2.30;;;1.70;;
3783;SDS011;1907;49.238;9.262;2022-11-04T07:50:18;1.67;;;1.57;;
3783;SDS011;1907;49.238;9.262;2022-11-04T07:52:43;1.13;;;1.10;;
3783;SDS011;1907;49.238;9.262;2022-11-04T07:55:09;9.77;;;1.67;;
3783;SDS011;1907;49.238;9.262;2022-11-04T07:57:37;2.27;;;1.90;;
3783;SDS011;1907;49.238;9.262;2022-11-04T08:00:03;2.20;;;2.10;;
3783;SDS011;1907;49.238;9.262;2022-11-04T08:02:32;3.80;;;1.80;;
3783;SDS011;1907;49.238;9.262;2022-11-04T08:04:57;1.53;;;1.53;;
3783;SDS011;1907;49.238;9.262;2022-11-04T08:07:23;3.77;;;2.17;;
3783;SDS011;1907;49.238;9.262;2022-11-04T08:09:48;3.23;;;3.00;;
3783;SDS011;1907;49.238;9.262;2022-11-04T08:12:14;2.47;;;2.37;;
3783;SDS011;1907;49.238;9.262;2022-11-04T08:14:40;2.27;;;2.17;;
3783;SDS011;1907;49.238;9.262;2022-11-04T08:17:05;1.87;;;1.63;;
3783;SDS011;1907;49.238;9.262;2022-11-04T08:19:31;2.00;;;1.80;;
3783;SDS011;1907;49.238;9.262;2022-11-04T08:21:56;7.67;;;5.40;;
3783;SDS011;1907;49.238;9.262;2022-11-04T08:24:22;5.63;;;5.20;;
3783;SDS011;1907;49.238;9.262;2022-11-04T08:26:47;5.90;;;5.33;;
3783;SDS011;1907;49.238;9.262;2022-11-04T08:29:13;2.30;;;2.20;;
3783;SDS011;1907;49.238;9.262;2022-11-04T08:31:39;1.73;;;1.63;;
3783;SDS011;1907;49.238;9.262;2022-11-04T08:34:05;2.77;;;2.67;;
3783;SDS011;1907;49.238;9.262;2022-11-04T08:36:33;2.77;;;2.37;;
3783;SDS011;1907;49.238;9.262;2022-11-04T08:39:01;2.00;;;1.40;;
3783;SDS011;1907;49.238;9.262;2022-11-04T08:41:28;1.97;;;1.87;;
3783;SDS011;1907;49.238;9.262;2022-11-04T08:43:56;1.60;;;1.50;;
3783;SDS011;1907;49.238;9.262;2022-11-04T08:46:25;1.60;;;1.50;;
3783;SDS011;1907;49.238;9.262;2022-11-04T08:48:52;1.50;;;1.20;;
3783;SDS011;1907;49.238;9.262;2022-11-04T08:51:19;0.90;;;0.80;;
3783;SDS011;1907;49.238;9.262;2022-11-04T08:53:47;1.20;;;1.00;;
3783;SDS011;1907;49.238;9.262;2022-11-04T08:56:14;1.07;;;0.97;;
3783;SDS011;1907;49.238;9.262;2022-11-04T08:58:46;2.83;;;0.90;;
3783;SDS011;1907;49.238;9.262;2022-11-04T09:01:13;0.80;;;0.80;;
3783;SDS011;1907;49.238;9.262;2022-11-04T09:03:39;5.53;;;1.50;;
3783;SDS011;1907;49.238;9.262;2022-11-04T09:06:06;4.83;;;1.10;;
3783;SDS011;1907;49.238;9.262;2022-11-04T09:08:33;1.43;;;1.00;;
3783;SDS011;1907;49.238;9.262;2022-11-04T09:10:59;1.60;;;1.50;;
3783;SDS011;1907;49.238;9.262;2022-11-04T09:13:25;1.43;;;1.33;;
3783;SDS011;1907;49.238;9.262;2022-11-04T09:15:51;1.00;;;0.83;;
3783;SDS011;1907;49.238;9.262;2022-11-04T09:18:16;1.53;;;1.00;;
3783;SDS011;1907;49.238;9.262;2022-11-04T09:20:42;1.87;;;1.23;;
3783;SDS011;1907;49.238;9.262;2022-11-04T09:23:08;1.03;;;0.83;;
3783;SDS011;1907;49.238;9.262;2022-11-04T09:25:34;2.93;;;0.90;;
3783;SDS011;1907;49.238;9.262;2022-11-04T09:28:00;0.60;;;0.60;;
3783;SDS011;1907;49.238;9.262;2022-11-04T09:30:26;0.90;;;0.90;;
3783;SDS011;1907;49.238;9.262;2022-11-04T09:32:51;2.20;;;0.50;;
3783;SDS011;1907;49.238;9.262;2022-11-04T09:35:20;1.70;;;0.80;;
3783;SDS011;1907;49.238;9.262;2022-11-04T09:37:45;0.60;;;0.60;;
3783;SDS011;1907;49.238;9.262;2022-11-04T09:40:13;0.70;;;0.53;;
3783;SDS011;1907;49.238;9.262;2022-11-04T09:45:30;0.70;;;0.60;;
3783;SDS011;1907;49.238;9.262;2022-11-04T09:47:59;0.70;;;0.70;;
3783;SDS011;1907;49.238;9.262;2022-11-04T09:50:29;0.70;;;0.60;;
3783;SDS011;1907;49.238;9.262;2022-11-04T09:53:02;1.30;;;0.60;;
3783;SDS011;1907;49.238;9.262;2022-11-04T09:55:44;1.00;;;0.70;;
3783;SDS011;1907;49.238;9.262;2022-11-04T09:58:12;2.30;;;1.07;;
3783;SDS011;1907;49.238;9.262;2022-11-04T10:00:39;0.70;;;0.60;;
3783;SDS011;1907;49.238;9.262;2022-11-04T10:03:35;0.83;;;0.40;;
3783;SDS011;1907;49.238;9.262;2022-11-04T10:06:18;0.63;;;0.50;;
3783;SDS011;1907;49.238;9.262;2022-11-04T10:14:57;1.43;;;0.60;;
3783;SDS011;1907;49.238;9.262;2022-11-04T10:23:33;0.80;;;0.70;;
3783;SDS011;1907;49.238;9.262;2022-11-04T10:29:04;0.60;;;0.50;;
3783;SDS011;1907;49.238;9.262;2022-11-04T10:31:34;1.57;;;0.60;;
3783;SDS011;1907;49.238;9.262;2022-11-04T10:34:09;0.70;;;0.50;;
3783;SDS011;1907;49.238;9.262;2022-11-04T10:36:47;0.80;;;0.60;;
3783;SDS011;1907;49.238;9.262;2022-11-04T10:39:23;0.73;;;0.50;;
3783;SDS011;1907;49.238;9.262;2022-11-04T10:41:54;1.10;;;1.00;;
3783;SDS011;1907;49.238;9.262;2022-11-04T10:44:27;0.80;;;0.73;;
3783;SDS011;1907;49.238;9.262;2022-11-04T10:52:36;1.23;;;0.80;;
3783;SDS011;1907;49.238;9.262;2022-11-04T10:55:04;1.43;;;1.43;;
3783;SDS011;1907;49.238;9.262;2022-11-04T10:57:42;1.80;;;0.60;;
3783;SDS011;1907;49.238;9.262;2022-11-04T11:00:07;1.40;;;0.80;;
3783;SDS011;1907;49.238;9.262;2022-11-04T11:05:23;0.87;;;0.47;;
3783;SDS011;1907;49.238;9.262;2022-11-04T11:07:50;0.80;;;0.70;;
3783;SDS011;1907;49.238;9.262;2022-11-04T11:10:28;1.07;;;1.07;;
3783;SDS011;1907;49.238;9.262;2022-11-04T11:12:57;0.60;;;0.60;;
3783;SDS011;1907;49.238;9.262;2022-11-04T11:17:59;0.73;;;0.60;;
3783;SDS011;1907;49.238;9.262;2022-11-04T11:20:35;0.87;;;0.87;;
3783;SDS011;1907;49.238;9.262;2022-11-04T11:23:02;1.23;;;0.60;;
3783;SDS011;1907;49.238;9.262;2022-11-04T11:25:34;1.53;;;0.80;;
3783;SDS011;1907;49.238;9.262;2022-11-04T11:28:07;0.60;;;0.57;;
3783;SDS011;1907;49.238;9.262;2022-11-04T11:33:13;0.63;;;0.63;;
3783;SDS011;1907;49.238;9.262;2022-11-04T11:35:52;0.80;;;0.80;;
3783;SDS011;1907;49.238;9.262;2022-11-04T11:38:28;0.80;;;0.70;;
3783;SDS011;1907;49.238;9.262;2022-11-04T11:41:12;1.07;;;0.80;;
3783;SDS011;1907;49.238;9.262;2022-11-04T11:43:48;1.43;;;0.63;;
3783;SDS011;1907;49.238;9.262;2022-11-04T11:46:49;0.70;;;0.70;;
3783;SDS011;1907;49.238;9.262;2022-11-04T11:49:21;0.90;;;0.80;;
3783;SDS011;1907;49.238;9.262;2022-11-04T11:51:53;9.23;;;0.83;;
3783;SDS011;1907;49.238;9.262;2022-11-04T11:54:28;2.80;;;1.00;;
3783;SDS011;1907;49.238;9.262;2022-11-04T11:57:02;0.63;;;0.63;;
3783;SDS011;1907;49.238;9.262;2022-11-04T12:00:01;1.80;;;0.70;;
3783;SDS011;1907;49.238;9.262;2022-11-04T12:05:07;1.17;;;1.10;;
3783;SDS011;1907;49.238;9.262;2022-11-04T12:21:45;2.60;;;1.23;;
3783;SDS011;1907;49.238;9.262;2022-11-04T12:24:29;2.40;;;1.43;;
3783;SDS011;1907;49.238;9.262;2022-11-04T12:38:31;1.40;;;1.30;;
3783;SDS011;1907;49.238;9.262;2022-11-04T12:41:27;1.23;;;0.60;;
3783;SDS011;1907;49.238;9.262;2022-11-04T12:44:07;1.40;;;0.90;;
3783;SDS011;1907;49.238;9.262;2022-11-04T12:58:09;2.50;;;0.70;;
3783;SDS011;1907;49.238;9.262;2022-11-04T13:00:51;1.10;;;1.00;;
3783;SDS011;1907;49.238;9.262;2022-11-04T13:03:43;0.70;;;0.70;;
3783;SDS011;1907;49.238;9.262;2022-11-04T13:06:20;1.93;;;1.83;;
3783;SDS011;1907;49.238;9.262;2022-11-04T13:09:02;4.40;;;1.03;;
3783;SDS011;1907;49.238;9.262;2022-11-04T13:14:26;0.60;;;0.47;;
3783;SDS011;1907;49.238;9.262;2022-11-04T13:17:02;1.80;;;0.60;;
3783;SDS011;1907;49.238;9.262;2022-11-04T13:19:36;2.53;;;1.10;;
3783;SDS011;1907;49.238;9.262;2022-11-04T13:22:17;0.70;;;0.50;;
3783;SDS011;1907;49.238;9.262;2022-11-04T13:25:05;1.47;;;0.70;;
3783;SDS011;1907;49.238;9.262;2022-11-04T13:27:40;1.43;;;0.83;;
3783;SDS011;1907;49.238;9.262;2022-11-04T13:32:56;2.93;;;0.60;;
3783;SDS011;1907;49.238;9.262;2022-11-04T13:38:14;6.93;;;1.47;;
3783;SDS011;1907;49.238;9.262;2022-11-04T13:43:38;1.90;;;0.87;;
3783;SDS011;1907;49.238;9.262;2022-11-04T13:48:53;1.73;;;1.63;;
3783;SDS011;1907;49.238;9.262;2022-11-04T13:54:05;2.20;;;2.10;;
3783;SDS011;1907;49.238;9.262;2022-11-04T13:56:38;1.90;;;1.80;;
3783;SDS011;1907;49.238;9.262;2022-11-04T14:04:38;1.03;;;0.93;;
3783;SDS011;1907;49.238;9.262;2022-11-04T14:07:06;3.30;;;3.10;;
3783;SDS011;1907;49.238;9.262;2022-11-04T14:09:35;7.77;;;3.63;;
3783;SDS011;1907;49.238;9.262;2022-11-04T14:14:46;2.57;;;2.37;;
3783;SDS011;1907;49.238;9.262;2022-11-04T14:22:28;1.20;;;1.10;;
3783;SDS011;1907;49.238;9.262;2022-11-04T14:24:57;1.63;;;0.70;;
3783;SDS011;1907;49.238;9.262;2022-11-04T14:27:38;1.10;;;0.97;;
3783;SDS011;1907;49.238;9.262;2022-11-04T14:30:05;2.40;;;2.20;;
3783;SDS011;1907;49.238;9.262;2022-11-04T14:32:50;2.23;;;2.13;;
3783;SDS011;1907;49.238;9.262;2022-11-04T14:35:22;5.07;;;4.07;;
3783;SDS011;1907;49.238;9.262;2022-11-04T14:37:52;0.93;;;0.90;;
3783;SDS011;1907;49.238;9.262;2022-11-04T14:40:23;2.70;;;0.80;;
3783;SDS011;1907;49.238;9.262;2022-11-04T14:43:12;1.10;;;1.10;;
3783;SDS011;1907;49.238;9.262;2022-11-04T14:46:08;1.43;;;1.10;;
3783;SDS011;1907;49.238;9.262;2022-11-04T14:48:40;1.00;;;0.90;;
3783;SDS011;1907;49.238;9.262;2022-11-04T14:51:22;2.20;;;2.10;;
3783;SDS011;1907;49.238;9.262;2022-11-04T14:53:50;8.43;;;1.10;;
3783;SDS011;1907;49.238;9.262;2022-11-04T14:56:20;1.40;;;1.13;;
3783;SDS011;1907;49.238;9.262;2022-11-04T14:59:01;1.63;;;1.53;;
3783;SDS011;1907;49.238;9.262;2022-11-04T15:01:38;0.60;;;0.60;;
3783;SDS011;1907;49.238;9.262;2022-11-04T15:06:57;1.43;;;0.80;;
3783;SDS011;1907;49.238;9.262;2022-11-04T15:09:29;1.10;;;0.87;;
3783;SDS011;1907;49.238;9.262;2022-11-04T15:12:08;0.87;;;0.60;;
3783;SDS011;1907;49.238;9.262;2022-11-04T15:14:54;1.73;;;1.00;;
3783;SDS011;1907;49.238;9.262;2022-11-04T15:17:21;1.83;;;1.73;;
3783;SDS011;1907;49.238;9.262;2022-11-04T15:19:51;2.80;;;1.40;;
3783;SDS011;1907;49.238;9.262;2022-11-04T15:22:19;1.47;;;1.17;;
3783;SDS011;1907;49.238;9.262;2022-11-04T15:24:45;1.00;;;1.00;;
3783;SDS011;1907;49.238;9.262;2022-11-04T15:27:12;1.33;;;1.30;;
3783;SDS011;1907;49.238;9.262;2022-11-04T15:30:03;1.53;;;1.27;;
3783;SDS011;1907;49.238;9.262;2022-11-04T15:32:28;1.90;;;1.30;;
3783;SDS011;1907;49.238;9.262;2022-11-04T15:34:54;1.47;;;0.97;;
3783;SDS011;1907;49.238;9.262;2022-11-04T15:37:21;0.97;;;0.90;;
3783;SDS011;1907;49.238;9.262;2022-11-04T15:39:50;0.70;;;0.60;;
3783;SDS011;1907;49.238;9.262;2022-11-04T15:42:21;3.57;;;1.50;;
3783;SDS011;1907;49.238;9.262;2022-11-04T15:53:38;0.87;;;0.87;;
3783;SDS011;1907;49.238;9.262;2022-11-04T15:56:23;3.17;;;1.30;;
3783;SDS011;1907;49.238;9.262;2022-11-04T15:58:51;1.50;;;1.40;;
3783;SDS011;1907;49.238;9.262;2022-11-04T16:01:19;1.50;;;1.40;;
3783;SDS011;1907;49.238;9.262;2022-11-04T16:03:49;2.00;;;1.90;;
3783;SDS011;1907;49.238;9.262;2022-11-04T16:06:16;2.17;;;2.07;;
3783;SDS011;1907;49.238;9.262;2022-11-04T16:08:59;1.90;;;1.80;;
3783;SDS011;1907;49.238;9.262;2022-11-04T16:11:27;2.50;;;1.83;;
3783;SDS011;1907;49.238;9.262;2022-11-04T16:13:53;1.57;;;1.47;;
3783;SDS011;1907;49.238;9.262;2022-11-04T16:16:37;2.23;;;2.00;;
3783;SDS011;1907;49.238;9.262;2022-11-04T16:19:03;3.07;;;2.90;;
3783;SDS011;1907;49.238;9.262;2022-11-04T16:21:30;2.37;;;2.17;;
3783;SDS011;1907;49.238;9.262;2022-11-04T16:24:00;2.27;;;1.93;;
3783;SDS011;1907;49.238;9.262;2022-11-04T16:26:29;3.00;;;2.50;;
3783;SDS011;1907;49.238;9.262;2022-11-04T16:29:04;3.80;;;3.60;;
3783;SDS011;1907;49.238;9.262;2022-11-04T16:31:33;3.77;;;3.50;;
3783;SDS011;1907;49.238;9.262;2022-11-04T16:34:00;5.07;;;4.57;;
3783;SDS011;1907;49.238;9.262;2022-11-04T16:36:26;5.07;;;4.40;;
3783;SDS011;1907;49.238;9.262;2022-11-04T16:41:20;3.57;;;3.37;;
3783;SDS011;1907;49.238;9.262;2022-11-04T16:43:47;3.50;;;3.40;;
3783;SDS011;1907;49.238;9.262;2022-11-04T16:46:14;3.20;;;3.00;;
3783;SDS011;1907;49.238;9.262;2022-11-04T16:48:40;4.57;;;4.37;;
3783;SDS011;1907;49.238;9.262;2022-11-04T16:51:08;5.13;;;4.93;;
3783;SDS011;1907;49.238;9.262;2022-11-04T16:53:39;2.47;;;2.37;;
3783;SDS011;1907;49.238;9.262;2022-11-04T16:56:05;1.67;;;1.57;;
3783;SDS011;1907;49.238;9.262;2022-11-04T16:58:31;0.87;;;0.87;;
3783;SDS011;1907;49.238;9.262;2022-11-04T17:00:57;1.20;;;1.00;;
3783;SDS011;1907;49.238;9.262;2022-11-04T17:03:23;1.23;;;0.80;;
3783;SDS011;1907;49.238;9.262;2022-11-04T17:05:55;2.50;;;1.00;;
3783;SDS011;1907;49.238;9.262;2022-11-04T17:08:21;0.90;;;0.80;;
3783;SDS011;1907;49.238;9.262;2022-11-04T17:10:48;1.27;;;1.20;;
3783;SDS011;1907;49.238;9.262;2022-11-04T17:13:13;1.10;;;1.00;;
3783;SDS011;1907;49.238;9.262;2022-11-04T17:15:39;0.80;;;0.70;;
3783;SDS011;1907;49.238;9.262;2022-11-04T17:18:05;2.97;;;0.80;;
3783;SDS011;1907;49.238;9.262;2022-11-04T17:20:31;0.70;;;0.70;;
3783;SDS011;1907;49.238;9.262;2022-11-04T17:22:57;3.13;;;1.40;;
3783;SDS011;1907;49.238;9.262;2022-11-04T17:25:24;8.20;;;2.10;;
3783;SDS011;1907;49.238;9.262;2022-11-04T17:27:51;4.10;;;1.73;;
3783;SDS011;1907;49.238;9.262;2022-11-04T17:30:17;1.93;;;1.73;;
3783;SDS011;1907;49.238;9.262;2022-11-04T17:32:44;1.83;;;1.73;;
3783;SDS011;1907;49.238;9.262;2022-11-04T17:35:10;3.10;;;2.80;;
3783;SDS011;1907;49.238;9.262;2022-11-04T17:37:36;4.60;;;2.97;;
3783;SDS011;1907;49.238;9.262;2022-11-04T17:40:02;4.73;;;2.50;;
3783;SDS011;1907;49.238;9.262;2022-11-04T17:42:29;4.80;;;4.40;;
3783;SDS011;1907;49.238;9.262;2022-11-04T17:45:13;9.13;;;8.40;;
3783;SDS011;1907;49.238;9.262;2022-11-04T17:47:38;10.07;;;9.10;;
3783;SDS011;1907;49.238;9.262;2022-11-04T17:50:04;13.87;;;8.67;;
3783;SDS011;1907;49.238;9.262;2022-11-04T17:52:31;9.37;;;6.80;;
3783;SDS011;1907;49.238;9.262;2022-11-04T17:55:00;5.47;;;2.70;;
3783;SDS011;1907;49.238;9.262;2022-11-04T17:57:26;3.87;;;3.57;;
3783;SDS011;1907;49.238;9.262;2022-11-04T17:59:52;14.80;;;4.17;;
3783;SDS011;1907;49.238;9.262;2022-11-04T18:02:19;3.70;;;3.50;;
3783;SDS011;1907;49.238;9.262;2022-11-04T18:04:46;4.00;;;3.80;;
3783;SDS011;1907;49.238;9.262;2022-11-04T18:07:11;4.17;;;3.97;;
3783;SDS011;1907;49.238;9.262;2022-11-04T18:09:37;6.00;;;5.70;;
3783;SDS011;1907;49.238;9.262;2022-11-04T18:12:06;4.40;;;4.00;;
3783;SDS011;1907;49.238;9.262;2022-11-04T18:14:50;9.90;;;4.53;;